sensor_id;sensor_type;location;lat;lon;timestamp;P1;durP1;ratioP1;P2;durP2;ratioP2
26690;SDS011;14307;51.718;8.938;2023-11-21T00:00:35;44.05;;;29.30;;
26690;SDS011;14307;51.718;8.938;2023-11-21T00:03:02;49.22;;;29.83;;
26690;SDS011;14307;51.718;8.938;2023-11-21T00:05:30;51.05;;;28.33;;
26690;SDS011;14307;51.718;8.938;2023-11-21T00:07:57;51.75;;;26.95;;
26690;SDS011;14307;51.718;8.938;2023-11-21T00:10:24;51.15;;;26.42;;
26690;SDS011;14307;51.718;8.938;2023-11-21T00:12:51;60.88;;;27.67;;
26690;SDS011;14307;51.718;8.938;2023-11-21T00:15:17;52.72;;;28.05;;
26690;SDS011;14307;51.718;8.938;2023-11-21T00:17:44;46.88;;;27.58;;
26690;SDS011;14307;51.718;8.938;2023-11-21T00:20:15;46.05;;;27.40;;
26690;SDS011;14307;51.718;8.938;2023-11-21T00:22:42;49.13;;;25.23;;
26690;SDS011;14307;51.718;8.938;2023-11-21T00:25:10;47.33;;;26.20;;
26690;SDS011;14307;51.718;8.938;2023-11-21T00:27:36;49.20;;;26.15;;
26690;SDS011;14307;51.718;8.938;2023-11-21T00:30:04;43.17;;;27.25;;
26690;SDS011;14307;51.718;8.938;2023-11-21T00:32:32;50.38;;;28.02;;
26690;SDS011;14307;51.718;8.938;2023-11-21T00:35:00;51.78;;;27.85;;
26690;SDS011;14307;51.718;8.938;2023-11-21T00:37:27;45.85;;;29.13;;
26690;SDS011;14307;51.718;8.938;2023-11-21T00:39:54;52.22;;;30.20;;
26690;SDS011;14307;51.718;8.938;2023-11-21T00:42:21;54.05;;;29.30;;
26690;SDS011;14307;51.718;8.938;2023-11-21T00:44:47;54.10;;;30.08;;
26690;SDS011;14307;51.718;8.938;2023-11-21T00:47:14;49.67;;;30.48;;
26690;SDS011;14307;51.718;8.938;2023-11-21T00:49:41;44.08;;;29.80;;
26690;SDS011;14307;51.718;8.938;2023-11-21T00:52:09;47.80;;;29.52;;
26690;SDS011;14307;51.718;8.938;2023-11-21T00:54:36;52.22;;;28.70;;
26690;SDS011;14307;51.718;8.938;2023-11-21T00:57:04;55.20;;;29.70;;
26690;SDS011;14307;51.718;8.938;2023-11-21T00:59:30;59.63;;;32.47;;
26690;SDS011;14307;51.718;8.938;2023-11-21T01:01:57;52.47;;;29.92;;
26690;SDS011;14307;51.718;8.938;2023-11-21T01:04:27;71.15;;;33.67;;
26690;SDS011;14307;51.718;8.938;2023-11-21T01:06:54;59.03;;;33.72;;
26690;SDS011;14307;51.718;8.938;2023-11-21T01:09:20;57.00;;;33.90;;
26690;SDS011;14307;51.718;8.938;2023-11-21T01:11:47;62.92;;;33.78;;
26690;SDS011;14307;51.718;8.938;2023-11-21T01:14:14;65.25;;;35.63;;
26690;SDS011;14307;51.718;8.938;2023-11-21T01:16:41;70.20;;;35.10;;
26690;SDS011;14307;51.718;8.938;2023-11-21T01:19:08;75.95;;;35.85;;
26690;SDS011;14307;51.718;8.938;2023-11-21T01:21:35;76.93;;;36.03;;
26690;SDS011;14307;51.718;8.938;2023-11-21T01:24:03;78.55;;;34.38;;
26690;SDS011;14307;51.718;8.938;2023-11-21T01:26:31;85.30;;;37.35;;
26690;SDS011;14307;51.718;8.938;2023-11-21T01:29:00;70.03;;;36.42;;
26690;SDS011;14307;51.718;8.938;2023-11-21T01:31:27;84.13;;;36.67;;
26690;SDS011;14307;51.718;8.938;2023-11-21T01:33:56;63.60;;;34.13;;
26690;SDS011;14307;51.718;8.938;2023-11-21T01:36:22;73.95;;;34.55;;
26690;SDS011;14307;51.718;8.938;2023-11-21T01:38:49;78.40;;;37.13;;
26690;SDS011;14307;51.718;8.938;2023-11-21T01:41:16;91.20;;;36.83;;
26690;SDS011;14307;51.718;8.938;2023-11-21T01:43:43;90.43;;;40.47;;
26690;SDS011;14307;51.718;8.938;2023-11-21T01:46:10;71.32;;;34.65;;
26690;SDS011;14307;51.718;8.938;2023-11-21T01:48:37;83.88;;;34.17;;
26690;SDS011;14307;51.718;8.938;2023-11-21T01:51:04;70.43;;;34.40;;
26690;SDS011;14307;51.718;8.938;2023-11-21T01:53:31;83.43;;;36.30;;
26690;SDS011;14307;51.718;8.938;2023-11-21T01:55:58;80.15;;;35.85;;
26690;SDS011;14307;51.718;8.938;2023-11-21T01:58:26;93.43;;;36.63;;
26690;SDS011;14307;51.718;8.938;2023-11-21T02:00:53;97.53;;;35.83;;
26690;SDS011;14307;51.718;8.938;2023-11-21T02:03:21;88.65;;;34.88;;
26690;SDS011;14307;51.718;8.938;2023-11-21T02:05:48;92.13;;;35.45;;
26690;SDS011;14307;51.718;8.938;2023-11-21T02:08:14;92.72;;;36.58;;
26690;SDS011;14307;51.718;8.938;2023-11-21T02:10:42;78.20;;;36.75;;
26690;SDS011;14307;51.718;8.938;2023-11-21T02:13:09;105.93;;;36.10;;
26690;SDS011;14307;51.718;8.938;2023-11-21T02:15:37;81.03;;;34.92;;
26690;SDS011;14307;51.718;8.938;2023-11-21T02:18:04;87.68;;;36.83;;
26690;SDS011;14307;51.718;8.938;2023-11-21T02:20:32;87.95;;;35.75;;
26690;SDS011;14307;51.718;8.938;2023-11-21T02:23:02;88.75;;;38.05;;
26690;SDS011;14307;51.718;8.938;2023-11-21T02:25:30;85.57;;;38.42;;
26690;SDS011;14307;51.718;8.938;2023-11-21T02:27:59;87.03;;;37.17;;
26690;SDS011;14307;51.718;8.938;2023-11-21T02:30:29;80.18;;;36.13;;
26690;SDS011;14307;51.718;8.938;2023-11-21T02:32:59;87.57;;;35.85;;
26690;SDS011;14307;51.718;8.938;2023-11-21T02:35:27;95.30;;;38.65;;
26690;SDS011;14307;51.718;8.938;2023-11-21T02:37:54;92.88;;;38.38;;
26690;SDS011;14307;51.718;8.938;2023-11-21T02:40:23;84.63;;;40.45;;
26690;SDS011;14307;51.718;8.938;2023-11-21T02:42:52;108.93;;;43.65;;
26690;SDS011;14307;51.718;8.938;2023-11-21T02:45:20;106.43;;;36.67;;
26690;SDS011;14307;51.718;8.938;2023-11-21T02:47:47;80.43;;;35.08;;
26690;SDS011;14307;51.718;8.938;2023-11-21T02:50:20;62.67;;;31.73;;
26690;SDS011;14307;51.718;8.938;2023-11-21T02:52:49;86.80;;;37.65;;
26690;SDS011;14307;51.718;8.938;2023-11-21T02:55:16;70.35;;;33.90;;
26690;SDS011;14307;51.718;8.938;2023-11-21T02:57:42;79.85;;;36.05;;
26690;SDS011;14307;51.718;8.938;2023-11-21T03:00:09;79.97;;;34.67;;
26690;SDS011;14307;51.718;8.938;2023-11-21T03:02:39;80.80;;;36.45;;
26690;SDS011;14307;51.718;8.938;2023-11-21T03:05:07;90.53;;;34.67;;
26690;SDS011;14307;51.718;8.938;2023-11-21T03:07:39;87.45;;;35.70;;
26690;SDS011;14307;51.718;8.938;2023-11-21T03:10:07;84.78;;;35.90;;
26690;SDS011;14307;51.718;8.938;2023-11-21T03:12:38;88.40;;;35.83;;
26690;SDS011;14307;51.718;8.938;2023-11-21T03:15:06;94.63;;;36.95;;
26690;SDS011;14307;51.718;8.938;2023-11-21T03:17:33;84.53;;;33.63;;
26690;SDS011;14307;51.718;8.938;2023-11-21T03:20:02;87.88;;;34.85;;
26690;SDS011;14307;51.718;8.938;2023-11-21T03:22:30;95.68;;;36.65;;
26690;SDS011;14307;51.718;8.938;2023-11-21T03:24:57;92.85;;;37.42;;
26690;SDS011;14307;51.718;8.938;2023-11-21T03:27:25;85.30;;;34.17;;
26690;SDS011;14307;51.718;8.938;2023-11-21T03:29:52;90.20;;;33.35;;
26690;SDS011;14307;51.718;8.938;2023-11-21T03:32:19;108.35;;;38.45;;
26690;SDS011;14307;51.718;8.938;2023-11-21T03:34:53;100.10;;;35.38;;
26690;SDS011;14307;51.718;8.938;2023-11-21T03:37:22;101.50;;;35.45;;
26690;SDS011;14307;51.718;8.938;2023-11-21T03:39:49;93.32;;;35.97;;
26690;SDS011;14307;51.718;8.938;2023-11-21T03:42:16;116.50;;;39.03;;
26690;SDS011;14307;51.718;8.938;2023-11-21T03:44:43;118.57;;;39.90;;
26690;SDS011;14307;51.718;8.938;2023-11-21T03:47:09;185.95;;;49.50;;
26690;SDS011;14307;51.718;8.938;2023-11-21T03:49:37;231.10;;;54.47;;
26690;SDS011;14307;51.718;8.938;2023-11-21T03:52:04;155.25;;;39.97;;
26690;SDS011;14307;51.718;8.938;2023-11-21T03:54:31;147.07;;;41.53;;
26690;SDS011;14307;51.718;8.938;2023-11-21T03:56:58;173.68;;;44.17;;
26690;SDS011;14307;51.718;8.938;2023-11-21T03:59:25;163.55;;;45.13;;
26690;SDS011;14307;51.718;8.938;2023-11-21T04:01:52;175.88;;;47.08;;
26690;SDS011;14307;51.718;8.938;2023-11-21T04:04:23;182.35;;;47.85;;
26690;SDS011;14307;51.718;8.938;2023-11-21T04:06:50;212.05;;;52.85;;
26690;SDS011;14307;51.718;8.938;2023-11-21T04:09:18;203.43;;;53.90;;
26690;SDS011;14307;51.718;8.938;2023-11-21T04:11:45;178.85;;;47.42;;
26690;SDS011;14307;51.718;8.938;2023-11-21T04:14:12;192.40;;;52.58;;
26690;SDS011;14307;51.718;8.938;2023-11-21T04:16:40;211.35;;;52.78;;
26690;SDS011;14307;51.718;8.938;2023-11-21T04:19:07;194.23;;;53.90;;
26690;SDS011;14307;51.718;8.938;2023-11-21T04:21:36;191.48;;;51.40;;
26690;SDS011;14307;51.718;8.938;2023-11-21T04:24:04;176.75;;;50.90;;
26690;SDS011;14307;51.718;8.938;2023-11-21T04:26:32;184.38;;;50.05;;
26690;SDS011;14307;51.718;8.938;2023-11-21T04:28:59;192.00;;;56.63;;
26690;SDS011;14307;51.718;8.938;2023-11-21T04:31:26;215.77;;;54.13;;
26690;SDS011;14307;51.718;8.938;2023-11-21T04:33:53;231.52;;;58.97;;
26690;SDS011;14307;51.718;8.938;2023-11-21T04:36:19;247.73;;;60.97;;
26690;SDS011;14307;51.718;8.938;2023-11-21T04:38:46;381.50;;;74.53;;
26690;SDS011;14307;51.718;8.938;2023-11-21T04:41:13;403.55;;;76.68;;
26690;SDS011;14307;51.718;8.938;2023-11-21T04:43:39;449.08;;;79.78;;
26690;SDS011;14307;51.718;8.938;2023-11-21T04:46:06;506.17;;;81.68;;
26690;SDS011;14307;51.718;8.938;2023-11-21T04:48:33;549.85;;;90.95;;
26690;SDS011;14307;51.718;8.938;2023-11-21T04:51:00;543.42;;;84.25;;
26690;SDS011;14307;51.718;8.938;2023-11-21T04:53:27;539.03;;;85.72;;
26690;SDS011;14307;51.718;8.938;2023-11-21T04:55:53;421.55;;;75.65;;
26690;SDS011;14307;51.718;8.938;2023-11-21T04:58:20;418.90;;;75.95;;
26690;SDS011;14307;51.718;8.938;2023-11-21T05:00:47;361.13;;;76.28;;
26690;SDS011;14307;51.718;8.938;2023-11-21T05:03:15;323.10;;;72.00;;
26690;SDS011;14307;51.718;8.938;2023-11-21T05:05:42;336.65;;;77.22;;
26690;SDS011;14307;51.718;8.938;2023-11-21T05:08:09;329.45;;;72.80;;
26690;SDS011;14307;51.718;8.938;2023-11-21T05:10:36;554.13;;;88.43;;
26690;SDS011;14307;51.718;8.938;2023-11-21T05:13:05;531.33;;;85.63;;
26690;SDS011;14307;51.718;8.938;2023-11-21T05:15:37;549.00;;;84.30;;
26690;SDS011;14307;51.718;8.938;2023-11-21T05:18:05;435.65;;;80.65;;
26690;SDS011;14307;51.718;8.938;2023-11-21T05:20:32;570.70;;;90.53;;
26690;SDS011;14307;51.718;8.938;2023-11-21T05:22:59;480.58;;;83.88;;
26690;SDS011;14307;51.718;8.938;2023-11-21T05:25:26;461.33;;;85.97;;
26690;SDS011;14307;51.718;8.938;2023-11-21T05:27:53;378.17;;;77.43;;
26690;SDS011;14307;51.718;8.938;2023-11-21T05:30:25;301.88;;;71.00;;
26690;SDS011;14307;51.718;8.938;2023-11-21T05:32:52;362.30;;;74.57;;
26690;SDS011;14307;51.718;8.938;2023-11-21T05:35:19;318.13;;;72.25;;
26690;SDS011;14307;51.718;8.938;2023-11-21T05:37:47;352.63;;;73.22;;
26690;SDS011;14307;51.718;8.938;2023-11-21T05:40:14;340.25;;;70.82;;
26690;SDS011;14307;51.718;8.938;2023-11-21T05:42:41;310.67;;;69.18;;
26690;SDS011;14307;51.718;8.938;2023-11-21T05:45:08;309.23;;;69.85;;
26690;SDS011;14307;51.718;8.938;2023-11-21T05:47:37;317.08;;;67.60;;
26690;SDS011;14307;51.718;8.938;2023-11-21T05:50:10;265.50;;;65.90;;
26690;SDS011;14307;51.718;8.938;2023-11-21T05:52:38;273.73;;;67.20;;
26690;SDS011;14307;51.718;8.938;2023-11-21T05:55:08;236.23;;;65.78;;
26690;SDS011;14307;51.718;8.938;2023-11-21T05:57:39;259.05;;;65.18;;
26690;SDS011;14307;51.718;8.938;2023-11-21T06:00:15;278.75;;;69.07;;
26690;SDS011;14307;51.718;8.938;2023-11-21T06:02:49;257.05;;;64.95;;
26690;SDS011;14307;51.718;8.938;2023-11-21T06:05:24;249.82;;;66.45;;
26690;SDS011;14307;51.718;8.938;2023-11-21T06:07:53;257.85;;;64.20;;
26690;SDS011;14307;51.718;8.938;2023-11-21T06:10:25;284.00;;;67.78;;
26690;SDS011;14307;51.718;8.938;2023-11-21T06:12:52;272.42;;;67.65;;
26690;SDS011;14307;51.718;8.938;2023-11-21T06:15:20;271.85;;;66.28;;
26690;SDS011;14307;51.718;8.938;2023-11-21T06:17:48;287.13;;;69.65;;
26690;SDS011;14307;51.718;8.938;2023-11-21T06:20:19;368.98;;;74.15;;
26690;SDS011;14307;51.718;8.938;2023-11-21T06:22:47;341.55;;;74.03;;
26690;SDS011;14307;51.718;8.938;2023-11-21T06:25:16;438.70;;;79.53;;
26690;SDS011;14307;51.718;8.938;2023-11-21T06:27:44;371.08;;;77.50;;
26690;SDS011;14307;51.718;8.938;2023-11-21T06:30:12;354.13;;;73.90;;
26690;SDS011;14307;51.718;8.938;2023-11-21T06:32:40;342.52;;;76.65;;
26690;SDS011;14307;51.718;8.938;2023-11-21T06:35:11;313.00;;;72.00;;
26690;SDS011;14307;51.718;8.938;2023-11-21T06:37:39;281.98;;;69.63;;
26690;SDS011;14307;51.718;8.938;2023-11-21T06:40:06;373.63;;;76.50;;
26690;SDS011;14307;51.718;8.938;2023-11-21T06:42:35;319.08;;;72.65;;
26690;SDS011;14307;51.718;8.938;2023-11-21T06:45:04;346.25;;;76.35;;
26690;SDS011;14307;51.718;8.938;2023-11-21T06:47:32;330.08;;;74.45;;
26690;SDS011;14307;51.718;8.938;2023-11-21T06:49:59;306.40;;;73.80;;
26690;SDS011;14307;51.718;8.938;2023-11-21T06:52:27;283.10;;;76.38;;
26690;SDS011;14307;51.718;8.938;2023-11-21T06:54:54;312.90;;;73.75;;
26690;SDS011;14307;51.718;8.938;2023-11-21T06:57:22;318.88;;;75.00;;
26690;SDS011;14307;51.718;8.938;2023-11-21T06:59:50;314.60;;;79.00;;
26690;SDS011;14307;51.718;8.938;2023-11-21T07:02:16;327.38;;;79.60;;
26690;SDS011;14307;51.718;8.938;2023-11-21T07:04:46;312.52;;;78.60;;
26690;SDS011;14307;51.718;8.938;2023-11-21T07:07:13;362.55;;;81.80;;
26690;SDS011;14307;51.718;8.938;2023-11-21T07:09:40;353.08;;;78.13;;
26690;SDS011;14307;51.718;8.938;2023-11-21T07:12:07;435.75;;;83.95;;
26690;SDS011;14307;51.718;8.938;2023-11-21T07:14:34;505.02;;;93.28;;
26690;SDS011;14307;51.718;8.938;2023-11-21T07:17:01;536.85;;;91.45;;
26690;SDS011;14307;51.718;8.938;2023-11-21T07:19:28;553.25;;;93.68;;
26690;SDS011;14307;51.718;8.938;2023-11-21T07:21:55;653.78;;;102.68;;
26690;SDS011;14307;51.718;8.938;2023-11-21T07:24:22;495.33;;;86.93;;
26690;SDS011;14307;51.718;8.938;2023-11-21T07:26:53;520.53;;;89.95;;
26690;SDS011;14307;51.718;8.938;2023-11-21T07:29:23;490.27;;;91.90;;
26690;SDS011;14307;51.718;8.938;2023-11-21T07:31:55;508.02;;;92.00;;
26690;SDS011;14307;51.718;8.938;2023-11-21T07:34:22;573.40;;;92.70;;
26690;SDS011;14307;51.718;8.938;2023-11-21T07:36:49;495.33;;;91.82;;
26690;SDS011;14307;51.718;8.938;2023-11-21T07:39:16;467.08;;;90.03;;
26690;SDS011;14307;51.718;8.938;2023-11-21T07:41:43;460.50;;;93.95;;
26690;SDS011;14307;51.718;8.938;2023-11-21T07:44:16;472.58;;;95.57;;
26690;SDS011;14307;51.718;8.938;2023-11-21T07:46:47;397.98;;;90.68;;
26690;SDS011;14307;51.718;8.938;2023-11-21T07:49:16;382.83;;;90.25;;
26690;SDS011;14307;51.718;8.938;2023-11-21T07:51:46;364.15;;;87.57;;
26690;SDS011;14307;51.718;8.938;2023-11-21T07:54:13;382.85;;;89.85;;
26690;SDS011;14307;51.718;8.938;2023-11-21T07:56:40;392.20;;;89.30;;
26690;SDS011;14307;51.718;8.938;2023-11-21T07:59:07;404.60;;;92.47;;
26690;SDS011;14307;51.718;8.938;2023-11-21T08:01:34;411.13;;;94.60;;
26690;SDS011;14307;51.718;8.938;2023-11-21T08:04:02;490.67;;;99.78;;
26690;SDS011;14307;51.718;8.938;2023-11-21T08:06:31;448.48;;;100.57;;
26690;SDS011;14307;51.718;8.938;2023-11-21T08:08:57;488.15;;;102.40;;
26690;SDS011;14307;51.718;8.938;2023-11-21T08:11:25;518.67;;;111.55;;
26690;SDS011;14307;51.718;8.938;2023-11-21T08:13:55;526.22;;;113.65;;
26690;SDS011;14307;51.718;8.938;2023-11-21T08:16:22;405.95;;;100.22;;
26690;SDS011;14307;51.718;8.938;2023-11-21T08:18:50;567.85;;;115.40;;
26690;SDS011;14307;51.718;8.938;2023-11-21T08:21:17;475.83;;;106.85;;
26690;SDS011;14307;51.718;8.938;2023-11-21T08:23:45;360.73;;;106.43;;
26690;SDS011;14307;51.718;8.938;2023-11-21T08:26:15;375.27;;;106.32;;
26690;SDS011;14307;51.718;8.938;2023-11-21T08:28:45;373.25;;;104.70;;
26690;SDS011;14307;51.718;8.938;2023-11-21T08:31:13;305.08;;;94.55;;
26690;SDS011;14307;51.718;8.938;2023-11-21T08:33:41;257.73;;;91.40;;
26690;SDS011;14307;51.718;8.938;2023-11-21T08:36:09;281.08;;;91.72;;
26690;SDS011;14307;51.718;8.938;2023-11-21T08:38:38;249.43;;;86.18;;
26690;SDS011;14307;51.718;8.938;2023-11-21T08:41:07;238.80;;;84.22;;
26690;SDS011;14307;51.718;8.938;2023-11-21T08:43:34;215.48;;;76.65;;
26690;SDS011;14307;51.718;8.938;2023-11-21T08:46:08;175.20;;;70.00;;
26690;SDS011;14307;51.718;8.938;2023-11-21T08:48:40;149.82;;;64.68;;
26690;SDS011;14307;51.718;8.938;2023-11-21T08:51:10;169.13;;;67.10;;
26690;SDS011;14307;51.718;8.938;2023-11-21T08:53:40;163.02;;;68.05;;
26690;SDS011;14307;51.718;8.938;2023-11-21T08:56:07;133.75;;;61.50;;
26690;SDS011;14307;51.718;8.938;2023-11-21T08:58:38;129.57;;;63.72;;
26690;SDS011;14307;51.718;8.938;2023-11-21T09:01:05;127.63;;;63.00;;
26690;SDS011;14307;51.718;8.938;2023-11-21T09:03:33;110.10;;;60.30;;
26690;SDS011;14307;51.718;8.938;2023-11-21T09:06:00;111.35;;;59.22;;
26690;SDS011;14307;51.718;8.938;2023-11-21T09:08:27;97.65;;;57.72;;
26690;SDS011;14307;51.718;8.938;2023-11-21T09:10:56;111.88;;;60.13;;
26690;SDS011;14307;51.718;8.938;2023-11-21T09:13:24;98.88;;;58.75;;
26690;SDS011;14307;51.718;8.938;2023-11-21T09:15:52;108.35;;;61.85;;
26690;SDS011;14307;51.718;8.938;2023-11-21T09:18:18;97.60;;;57.58;;
26690;SDS011;14307;51.718;8.938;2023-11-21T09:20:45;94.13;;;55.95;;
26690;SDS011;14307;51.718;8.938;2023-11-21T09:23:12;98.63;;;59.15;;
26690;SDS011;14307;51.718;8.938;2023-11-21T09:25:39;90.05;;;57.50;;
26690;SDS011;14307;51.718;8.938;2023-11-21T09:28:06;102.22;;;57.90;;
26690;SDS011;14307;51.718;8.938;2023-11-21T09:30:36;84.45;;;54.90;;
26690;SDS011;14307;51.718;8.938;2023-11-21T09:33:05;87.38;;;54.75;;
26690;SDS011;14307;51.718;8.938;2023-11-21T09:35:32;81.45;;;55.40;;
26690;SDS011;14307;51.718;8.938;2023-11-21T09:38:00;87.15;;;55.40;;
26690;SDS011;14307;51.718;8.938;2023-11-21T09:40:35;90.43;;;58.85;;
26690;SDS011;14307;51.718;8.938;2023-11-21T09:43:05;89.68;;;54.97;;
26690;SDS011;14307;51.718;8.938;2023-11-21T09:45:43;88.72;;;53.22;;
26690;SDS011;14307;51.718;8.938;2023-11-21T09:48:14;83.40;;;52.75;;
26690;SDS011;14307;51.718;8.938;2023-11-21T09:50:43;89.95;;;54.67;;
26690;SDS011;14307;51.718;8.938;2023-11-21T09:53:17;98.60;;;56.60;;
26690;SDS011;14307;51.718;8.938;2023-11-21T09:55:48;90.65;;;55.47;;
26690;SDS011;14307;51.718;8.938;2023-11-21T09:58:22;94.13;;;56.90;;
26690;SDS011;14307;51.718;8.938;2023-11-21T10:00:55;98.35;;;56.50;;
26690;SDS011;14307;51.718;8.938;2023-11-21T10:03:25;88.75;;;53.45;;
26690;SDS011;14307;51.718;8.938;2023-11-21T10:05:53;90.07;;;52.55;;
26690;SDS011;14307;51.718;8.938;2023-11-21T10:08:22;99.68;;;56.25;;
26690;SDS011;14307;51.718;8.938;2023-11-21T10:10:51;96.32;;;56.25;;
26690;SDS011;14307;51.718;8.938;2023-11-21T10:13:20;98.60;;;58.63;;
26690;SDS011;14307;51.718;8.938;2023-11-21T10:15:51;109.82;;;58.38;;
26690;SDS011;14307;51.718;8.938;2023-11-21T10:18:22;121.40;;;58.08;;
26690;SDS011;14307;51.718;8.938;2023-11-21T10:20:51;122.82;;;59.53;;
26690;SDS011;14307;51.718;8.938;2023-11-21T10:23:20;148.45;;;65.88;;
26690;SDS011;14307;51.718;8.938;2023-11-21T10:25:50;144.38;;;69.22;;
26690;SDS011;14307;51.718;8.938;2023-11-21T10:28:35;171.75;;;71.43;;
26690;SDS011;14307;51.718;8.938;2023-11-21T10:31:06;134.40;;;63.75;;
26690;SDS011;14307;51.718;8.938;2023-11-21T10:33:33;126.95;;;62.95;;
26690;SDS011;14307;51.718;8.938;2023-11-21T10:36:00;145.63;;;65.38;;
26690;SDS011;14307;51.718;8.938;2023-11-21T10:38:28;123.43;;;60.15;;
26690;SDS011;14307;51.718;8.938;2023-11-21T10:41:11;111.78;;;60.92;;
26690;SDS011;14307;51.718;8.938;2023-11-21T10:43:42;99.13;;;57.83;;
26690;SDS011;14307;51.718;8.938;2023-11-21T10:46:10;110.25;;;60.40;;
26690;SDS011;14307;51.718;8.938;2023-11-21T10:48:37;110.15;;;58.97;;
26690;SDS011;14307;51.718;8.938;2023-11-21T10:51:08;119.30;;;61.45;;
26690;SDS011;14307;51.718;8.938;2023-11-21T10:53:42;120.40;;;57.92;;
26690;SDS011;14307;51.718;8.938;2023-11-21T10:56:12;128.23;;;61.22;;
26690;SDS011;14307;51.718;8.938;2023-11-21T10:58:45;119.63;;;61.40;;
26690;SDS011;14307;51.718;8.938;2023-11-21T11:01:12;101.10;;;57.08;;
26690;SDS011;14307;51.718;8.938;2023-11-21T11:03:43;108.75;;;57.50;;
26690;SDS011;14307;51.718;8.938;2023-11-21T11:06:11;106.90;;;57.95;;
26690;SDS011;14307;51.718;8.938;2023-11-21T11:08:40;101.70;;;54.33;;
26690;SDS011;14307;51.718;8.938;2023-11-21T11:11:07;91.72;;;54.97;;
26690;SDS011;14307;51.718;8.938;2023-11-21T11:13:37;94.40;;;50.65;;
26690;SDS011;14307;51.718;8.938;2023-11-21T11:16:04;87.63;;;50.40;;
26690;SDS011;14307;51.718;8.938;2023-11-21T11:18:34;75.05;;;45.78;;
26690;SDS011;14307;51.718;8.938;2023-11-21T11:21:09;75.75;;;44.92;;
26690;SDS011;14307;51.718;8.938;2023-11-21T11:34:59;44.22;;;31.55;;
26690;SDS011;14307;51.718;8.938;2023-11-21T11:37:36;53.45;;;31.42;;
26690;SDS011;14307;51.718;8.938;2023-11-21T11:40:05;56.58;;;30.35;;
26690;SDS011;14307;51.718;8.938;2023-11-21T11:42:33;54.53;;;28.67;;
26690;SDS011;14307;51.718;8.938;2023-11-21T11:44:59;60.95;;;28.80;;
26690;SDS011;14307;51.718;8.938;2023-11-21T11:50:10;60.70;;;27.67;;
26690;SDS011;14307;51.718;8.938;2023-11-21T11:52:44;137.18;;;32.15;;
26690;SDS011;14307;51.718;8.938;2023-11-21T11:55:18;137.90;;;31.23;;
26690;SDS011;14307;51.718;8.938;2023-11-21T11:57:49;115.07;;;29.80;;
26690;SDS011;14307;51.718;8.938;2023-11-21T12:00:20;204.52;;;32.78;;
26690;SDS011;14307;51.718;8.938;2023-11-21T12:02:55;46.30;;;19.55;;
26690;SDS011;14307;51.718;8.938;2023-11-21T12:05:26;52.05;;;18.73;;
26690;SDS011;14307;51.718;8.938;2023-11-21T12:07:55;65.65;;;22.75;;
26690;SDS011;14307;51.718;8.938;2023-11-21T12:10:25;139.43;;;32.65;;
26690;SDS011;14307;51.718;8.938;2023-11-21T12:12:56;159.65;;;35.22;;
26690;SDS011;14307;51.718;8.938;2023-11-21T12:15:25;142.30;;;31.00;;
26690;SDS011;14307;51.718;8.938;2023-11-21T12:17:52;144.80;;;25.52;;
26690;SDS011;14307;51.718;8.938;2023-11-21T12:20:19;53.20;;;22.20;;
26690;SDS011;14307;51.718;8.938;2023-11-21T12:22:51;157.38;;;28.50;;
26690;SDS011;14307;51.718;8.938;2023-11-21T12:25:23;76.72;;;22.55;;
26690;SDS011;14307;51.718;8.938;2023-11-21T12:27:51;61.75;;;21.90;;
26690;SDS011;14307;51.718;8.938;2023-11-21T12:30:20;23.38;;;17.95;;
26690;SDS011;14307;51.718;8.938;2023-11-21T12:32:49;17.50;;;13.32;;
26690;SDS011;14307;51.718;8.938;2023-11-21T12:35:23;18.73;;;14.45;;
26690;SDS011;14307;51.718;8.938;2023-11-21T12:37:51;20.17;;;14.20;;
26690;SDS011;14307;51.718;8.938;2023-11-21T12:40:19;20.17;;;15.27;;
26690;SDS011;14307;51.718;8.938;2023-11-21T12:42:47;22.75;;;16.67;;
26690;SDS011;14307;51.718;8.938;2023-11-21T12:45:18;19.70;;;14.18;;
26690;SDS011;14307;51.718;8.938;2023-11-21T12:47:47;17.58;;;13.80;;
26690;SDS011;14307;51.718;8.938;2023-11-21T12:50:19;21.30;;;14.10;;
26690;SDS011;14307;51.718;8.938;2023-11-21T12:52:51;21.92;;;14.60;;
26690;SDS011;14307;51.718;8.938;2023-11-21T12:55:20;24.25;;;16.00;;
26690;SDS011;14307;51.718;8.938;2023-11-21T12:57:51;24.70;;;16.77;;
26690;SDS011;14307;51.718;8.938;2023-11-21T13:00:31;23.05;;;14.48;;
26690;SDS011;14307;51.718;8.938;2023-11-21T13:03:04;22.33;;;15.55;;
26690;SDS011;14307;51.718;8.938;2023-11-21T13:05:38;24.70;;;15.35;;
26690;SDS011;14307;51.718;8.938;2023-11-21T13:08:12;26.52;;;14.52;;
26690;SDS011;14307;51.718;8.938;2023-11-21T13:10:40;21.33;;;14.05;;
26690;SDS011;14307;51.718;8.938;2023-11-21T13:13:10;21.75;;;14.02;;
26690;SDS011;14307;51.718;8.938;2023-11-21T13:15:47;28.83;;;15.88;;
26690;SDS011;14307;51.718;8.938;2023-11-21T13:18:16;27.40;;;16.50;;
26690;SDS011;14307;51.718;8.938;2023-11-21T13:20:43;28.55;;;16.50;;
26690;SDS011;14307;51.718;8.938;2023-11-21T13:23:12;24.88;;;16.90;;
26690;SDS011;14307;51.718;8.938;2023-11-21T13:25:39;31.00;;;18.08;;
26690;SDS011;14307;51.718;8.938;2023-11-21T13:28:08;26.95;;;17.73;;
26690;SDS011;14307;51.718;8.938;2023-11-21T13:30:39;36.28;;;21.35;;
26690;SDS011;14307;51.718;8.938;2023-11-21T13:33:08;33.50;;;20.88;;
26690;SDS011;14307;51.718;8.938;2023-11-21T13:35:39;34.35;;;20.00;;
26690;SDS011;14307;51.718;8.938;2023-11-21T13:38:10;29.50;;;19.38;;
26690;SDS011;14307;51.718;8.938;2023-11-21T13:40:39;31.67;;;20.40;;
26690;SDS011;14307;51.718;8.938;2023-11-21T13:43:13;27.05;;;18.33;;
26690;SDS011;14307;51.718;8.938;2023-11-21T13:45:40;33.65;;;21.15;;
26690;SDS011;14307;51.718;8.938;2023-11-21T13:48:10;32.80;;;22.50;;
26690;SDS011;14307;51.718;8.938;2023-11-21T13:50:41;38.00;;;21.80;;
26690;SDS011;14307;51.718;8.938;2023-11-21T13:53:34;32.30;;;21.05;;
26690;SDS011;14307;51.718;8.938;2023-11-21T13:56:04;26.83;;;19.77;;
26690;SDS011;14307;51.718;8.938;2023-11-21T13:58:31;28.70;;;18.95;;
26690;SDS011;14307;51.718;8.938;2023-11-21T14:01:11;32.67;;;20.25;;
26690;SDS011;14307;51.718;8.938;2023-11-21T14:04:00;31.15;;;23.48;;
26690;SDS011;14307;51.718;8.938;2023-11-21T14:06:39;30.02;;;22.45;;
26690;SDS011;14307;51.718;8.938;2023-11-21T14:09:15;29.65;;;21.08;;
26690;SDS011;14307;51.718;8.938;2023-11-21T14:11:52;26.52;;;19.42;;
26690;SDS011;14307;51.718;8.938;2023-11-21T14:14:26;25.47;;;19.83;;
26690;SDS011;14307;51.718;8.938;2023-11-21T14:16:56;24.57;;;19.57;;
26690;SDS011;14307;51.718;8.938;2023-11-21T14:19:25;23.42;;;19.45;;
26690;SDS011;14307;51.718;8.938;2023-11-21T14:21:58;24.38;;;21.65;;
26690;SDS011;14307;51.718;8.938;2023-11-21T14:24:26;22.40;;;20.00;;
26690;SDS011;14307;51.718;8.938;2023-11-21T14:26:55;22.80;;;20.42;;
26690;SDS011;14307;51.718;8.938;2023-11-21T14:29:22;25.23;;;21.35;;
26690;SDS011;14307;51.718;8.938;2023-11-21T14:31:50;26.55;;;21.30;;
26690;SDS011;14307;51.718;8.938;2023-11-21T14:34:20;25.27;;;22.10;;
26690;SDS011;14307;51.718;8.938;2023-11-21T14:36:51;25.60;;;21.05;;
26690;SDS011;14307;51.718;8.938;2023-11-21T14:39:18;26.45;;;23.00;;